Decoded Metar for LZIB (BRATISLAVA in SLOVAKIA) (IATA:BTS) | Meteo·Mobile Aviation Weather
aviador You're here:

LZIB Decoded Metar

BRATISLAVA in SLOVAKIA
Report Time2018-09-19 22:00:00
UTC Time2018-09-19 22:13:06
Flight Rules vfr VFR
Wind030° at 04 kt
W.Decomp.*RWY 04: 3.9 kt HW 0.9 kt LCW
RWY 31: 0.9 kt HW 3.9 kt RCW
W.Rank030° ranks 9
Current wind is below 030° avg. (5.0)
Visibility9999 m
Phenomena:N/A
Clouds:Few 046 Hf
Expected CloudBase > 400 ft AGL from Temp-Dew spread
CeilingNone
Temp16°C (ISA +2)
Dew Point15°C (94% RH)
QNH1021 hPa
Density Alt620 ft
Elevation440 ft
Report Wrong Elevation
Raw Report
LZIB 192200Z 03004KT 9999 FEW046 16/15 Q1021=

Extra information for LZIB:More info

Metar Taf Metar & Taf Last 4 Metars F.Rules Stats Wind Profile Meteogram Temp Stats Airport Information Weather charts Add Link Nearby VenuesMetar ALERT Operation Metar Decoded Social comments